sensor_id;sensor_type;location;lat;lon;timestamp;temperature;humidity
69823;SHT31;57119;52.516;13.508;2023-10-09T00:00:11;10.19;99.87
69823;SHT31;57119;52.516;13.508;2023-10-09T00:02:56;10.03;99.99
69823;SHT31;57119;52.516;13.508;2023-10-09T00:05:23;9.95;99.99
69823;SHT31;57119;52.516;13.508;2023-10-09T00:08:03;9.75;99.99
69823;SHT31;57119;52.516;13.508;2023-10-09T00:10:29;9.86;99.99
69823;SHT31;57119;52.516;13.508;2023-10-09T00:13:00;9.92;99.99
69823;SHT31;57119;52.516;13.508;2023-10-09T00:15:26;10.03;99.99
69823;SHT31;57119;52.516;13.508;2023-10-09T00:17:52;10.06;99.99
69823;SHT31;57119;52.516;13.508;2023-10-09T00:20:21;9.94;99.99
69823;SHT31;57119;52.516;13.508;2023-10-09T00:22:50;9.95;99.99
69823;SHT31;57119;52.516;13.508;2023-10-09T00:25:16;9.92;99.99
69823;SHT31;57119;52.516;13.508;2023-10-09T00:27:54;9.94;99.99
69823;SHT31;57119;52.516;13.508;2023-10-09T00:30:20;9.99;99.99
69823;SHT31;57119;52.516;13.508;2023-10-09T00:32:54;10.05;99.99
69823;SHT31;57119;52.516;13.508;2023-10-09T00:35:30;9.98;99.99
69823;SHT31;57119;52.516;13.508;2023-10-09T00:38:05;9.99;99.99
69823;SHT31;57119;52.516;13.508;2023-10-09T00:40:49;10.08;99.99
69823;SHT31;57119;52.516;13.508;2023-10-09T00:43:22;10.01;99.99
69823;SHT31;57119;52.516;13.508;2023-10-09T00:45:54;9.96;99.99
69823;SHT31;57119;52.516;13.508;2023-10-09T00:48:20;9.99;99.99
69823;SHT31;57119;52.516;13.508;2023-10-09T00:50:57;9.89;99.99
69823;SHT31;57119;52.516;13.508;2023-10-09T00:53:25;9.88;99.99
69823;SHT31;57119;52.516;13.508;2023-10-09T00:55:57;9.96;99.99
69823;SHT31;57119;52.516;13.508;2023-10-09T00:58:23;9.84;99.99
69823;SHT31;57119;52.516;13.508;2023-10-09T01:00:56;9.92;99.99
69823;SHT31;57119;52.516;13.508;2023-10-09T01:03:24;9.96;99.99
69823;SHT31;57119;52.516;13.508;2023-10-09T01:05:58;9.85;99.99
69823;SHT31;57119;52.516;13.508;2023-10-09T01:08:34;9.92;99.99
69823;SHT31;57119;52.516;13.508;2023-10-09T01:11:06;9.96;99.99
69823;SHT31;57119;52.516;13.508;2023-10-09T01:13:36;9.85;99.99
69823;SHT31;57119;52.516;13.508;2023-10-09T01:16:07;9.75;99.99
69823;SHT31;57119;52.516;13.508;2023-10-09T01:18:40;9.81;99.99
69823;SHT31;57119;52.516;13.508;2023-10-09T01:21:11;9.75;99.99
69823;SHT31;57119;52.516;13.508;2023-10-09T01:23:44;9.73;99.99
69823;SHT31;57119;52.516;13.508;2023-10-09T01:26:31;9.79;99.99
69823;SHT31;57119;52.516;13.508;2023-10-09T01:29:19;9.73;99.99
69823;SHT31;57119;52.516;13.508;2023-10-09T01:34:32;9.77;99.99
69823;SHT31;57119;52.516;13.508;2023-10-09T01:37:08;9.70;99.99
69823;SHT31;57119;52.516;13.508;2023-10-09T01:39:45;9.44;99.99
69823;SHT31;57119;52.516;13.508;2023-10-09T01:42:10;9.61;99.99
69823;SHT31;57119;52.516;13.508;2023-10-09T01:44:36;9.47;99.99
69823;SHT31;57119;52.516;13.508;2023-10-09T01:47:08;9.51;99.99
69823;SHT31;57119;52.516;13.508;2023-10-09T01:49:34;9.58;99.99
69823;SHT31;57119;52.516;13.508;2023-10-09T01:52:02;9.47;99.99
69823;SHT31;57119;52.516;13.508;2023-10-09T01:54:37;9.43;99.99
69823;SHT31;57119;52.516;13.508;2023-10-09T01:57:07;9.55;99.99
69823;SHT31;57119;52.516;13.508;2023-10-09T01:59:38;9.51;99.99
69823;SHT31;57119;52.516;13.508;2023-10-09T02:02:08;9.37;99.99
69823;SHT31;57119;52.516;13.508;2023-10-09T02:04:39;9.48;99.99
69823;SHT31;57119;52.516;13.508;2023-10-09T02:07:07;9.57;99.99
69823;SHT31;57119;52.516;13.508;2023-10-09T02:09:34;9.36;99.99
69823;SHT31;57119;52.516;13.508;2023-10-09T02:12:01;9.38;99.99
69823;SHT31;57119;52.516;13.508;2023-10-09T02:14:27;9.41;99.99
69823;SHT31;57119;52.516;13.508;2023-10-09T02:16:53;9.41;99.99
69823;SHT31;57119;52.516;13.508;2023-10-09T02:19:43;9.55;99.99
69823;SHT31;57119;52.516;13.508;2023-10-09T02:22:13;9.65;99.99
69823;SHT31;57119;52.516;13.508;2023-10-09T02:24:40;9.65;99.99
69823;SHT31;57119;52.516;13.508;2023-10-09T02:27:19;9.67;99.99
69823;SHT31;57119;52.516;13.508;2023-10-09T02:30:04;9.71;99.99
69823;SHT31;57119;52.516;13.508;2023-10-09T02:32:41;9.46;99.99
69823;SHT31;57119;52.516;13.508;2023-10-09T02:35:09;9.34;99.99
69823;SHT31;57119;52.516;13.508;2023-10-09T02:37:46;9.48;99.99
69823;SHT31;57119;52.516;13.508;2023-10-09T02:40:12;9.65;99.99
69823;SHT31;57119;52.516;13.508;2023-10-09T02:42:47;9.61;99.99
69823;SHT31;57119;52.516;13.508;2023-10-09T02:45:15;9.43;99.99
69823;SHT31;57119;52.516;13.508;2023-10-09T02:47:41;9.40;99.99
69823;SHT31;57119;52.516;13.508;2023-10-09T02:50:08;9.37;99.99
69823;SHT31;57119;52.516;13.508;2023-10-09T02:52:47;9.33;99.99
69823;SHT31;57119;52.516;13.508;2023-10-09T02:55:18;9.29;99.99
69823;SHT31;57119;52.516;13.508;2023-10-09T02:57:53;9.27;99.99
69823;SHT31;57119;52.516;13.508;2023-10-09T03:00:30;9.41;99.99
69823;SHT31;57119;52.516;13.508;2023-10-09T03:02:58;9.48;99.99
69823;SHT31;57119;52.516;13.508;2023-10-09T03:05:24;9.51;99.99
69823;SHT31;57119;52.516;13.508;2023-10-09T03:07:53;9.48;99.99
69823;SHT31;57119;52.516;13.508;2023-10-09T03:10:21;9.54;99.99
69823;SHT31;57119;52.516;13.508;2023-10-09T03:12:47;9.62;99.99
69823;SHT31;57119;52.516;13.508;2023-10-09T03:15:17;9.75;99.99
69823;SHT31;57119;52.516;13.508;2023-10-09T03:17:44;9.71;99.99
69823;SHT31;57119;52.516;13.508;2023-10-09T03:20:10;9.62;99.99
69823;SHT31;57119;52.516;13.508;2023-10-09T03:22:40;9.61;99.99
69823;SHT31;57119;52.516;13.508;2023-10-09T03:25:06;9.50;99.99
69823;SHT31;57119;52.516;13.508;2023-10-09T03:27:38;9.54;99.99
69823;SHT31;57119;52.516;13.508;2023-10-09T03:30:03;9.51;99.99
69823;SHT31;57119;52.516;13.508;2023-10-09T03:32:30;9.38;99.99
69823;SHT31;57119;52.516;13.508;2023-10-09T03:34:55;9.40;99.99
69823;SHT31;57119;52.516;13.508;2023-10-09T03:37:21;9.40;99.99
69823;SHT31;57119;52.516;13.508;2023-10-09T03:40:00;9.36;99.99
69823;SHT31;57119;52.516;13.508;2023-10-09T03:42:25;9.38;99.99
69823;SHT31;57119;52.516;13.508;2023-10-09T03:44:50;9.33;99.99
69823;SHT31;57119;52.516;13.508;2023-10-09T03:47:19;9.34;99.99
69823;SHT31;57119;52.516;13.508;2023-10-09T03:49:49;9.27;99.99
69823;SHT31;57119;52.516;13.508;2023-10-09T03:52:17;9.29;99.99
69823;SHT31;57119;52.516;13.508;2023-10-09T03:54:43;9.34;99.99
69823;SHT31;57119;52.516;13.508;2023-10-09T03:57:12;9.40;99.99
69823;SHT31;57119;52.516;13.508;2023-10-09T03:59:40;9.52;99.99
69823;SHT31;57119;52.516;13.508;2023-10-09T04:02:07;9.43;99.99
69823;SHT31;57119;52.516;13.508;2023-10-09T04:04:33;9.41;99.99
69823;SHT31;57119;52.516;13.508;2023-10-09T04:06:59;9.47;99.99
69823;SHT31;57119;52.516;13.508;2023-10-09T04:09:24;9.57;99.99
69823;SHT31;57119;52.516;13.508;2023-10-09T04:11:51;9.61;99.99
69823;SHT31;57119;52.516;13.508;2023-10-09T04:14:42;9.59;99.99
69823;SHT31;57119;52.516;13.508;2023-10-09T04:17:21;9.62;99.99
69823;SHT31;57119;52.516;13.508;2023-10-09T04:20:00;9.64;99.99
69823;SHT31;57119;52.516;13.508;2023-10-09T04:22:43;9.65;99.99
69823;SHT31;57119;52.516;13.508;2023-10-09T04:25:29;9.59;99.99
69823;SHT31;57119;52.516;13.508;2023-10-09T04:28:06;9.73;99.99
69823;SHT31;57119;52.516;13.508;2023-10-09T04:30:41;9.47;99.99
69823;SHT31;57119;52.516;13.508;2023-10-09T04:33:12;9.41;99.99
69823;SHT31;57119;52.516;13.508;2023-10-09T04:36:02;9.47;99.99
69823;SHT31;57119;52.516;13.508;2023-10-09T04:38:46;9.43;99.99
69823;SHT31;57119;52.516;13.508;2023-10-09T04:41:32;9.58;99.99
69823;SHT31;57119;52.516;13.508;2023-10-09T04:44:17;9.64;99.99
69823;SHT31;57119;52.516;13.508;2023-10-09T04:46:50;9.65;99.99
69823;SHT31;57119;52.516;13.508;2023-10-09T04:49:35;9.70;99.99
69823;SHT31;57119;52.516;13.508;2023-10-09T04:52:19;9.61;99.99
69823;SHT31;57119;52.516;13.508;2023-10-09T04:55:05;9.62;99.99
69823;SHT31;57119;52.516;13.508;2023-10-09T05:00:08;9.40;99.99
69823;SHT31;57119;52.516;13.508;2023-10-09T05:02:52;9.47;99.99
69823;SHT31;57119;52.516;13.508;2023-10-09T05:05:26;9.55;99.99
69823;SHT31;57119;52.516;13.508;2023-10-09T05:10:52;9.48;99.99
69823;SHT31;57119;52.516;13.508;2023-10-09T05:13:33;9.43;99.99
69823;SHT31;57119;52.516;13.508;2023-10-09T05:16:11;9.46;99.99
69823;SHT31;57119;52.516;13.508;2023-10-09T05:18:53;9.51;99.99
69823;SHT31;57119;52.516;13.508;2023-10-09T05:23:57;9.44;99.99
69823;SHT31;57119;52.516;13.508;2023-10-09T05:26:40;9.30;99.99
69823;SHT31;57119;52.516;13.508;2023-10-09T05:31:37;9.44;99.99
69823;SHT31;57119;52.516;13.508;2023-10-09T05:34:22;9.44;99.99
69823;SHT31;57119;52.516;13.508;2023-10-09T05:36:52;9.51;99.99
69823;SHT31;57119;52.516;13.508;2023-10-09T05:39:36;9.57;99.99
69823;SHT31;57119;52.516;13.508;2023-10-09T05:42:07;9.59;99.99
69823;SHT31;57119;52.516;13.508;2023-10-09T05:44:43;9.58;99.99
69823;SHT31;57119;52.516;13.508;2023-10-09T05:47:40;9.43;99.99
69823;SHT31;57119;52.516;13.508;2023-10-09T05:50:21;9.47;99.99
69823;SHT31;57119;52.516;13.508;2023-10-09T05:52:47;9.31;99.99
69823;SHT31;57119;52.516;13.508;2023-10-09T05:55:25;9.46;99.99
69823;SHT31;57119;52.516;13.508;2023-10-09T05:58:10;9.61;99.99
69823;SHT31;57119;52.516;13.508;2023-10-09T06:00:53;9.54;99.99
69823;SHT31;57119;52.516;13.508;2023-10-09T06:03:37;9.54;99.99
69823;SHT31;57119;52.516;13.508;2023-10-09T06:06:29;9.58;99.99
69823;SHT31;57119;52.516;13.508;2023-10-09T06:09:14;9.46;99.99
69823;SHT31;57119;52.516;13.508;2023-10-09T06:11:41;9.44;99.99
69823;SHT31;57119;52.516;13.508;2023-10-09T06:14:22;9.51;99.99
69823;SHT31;57119;52.516;13.508;2023-10-09T06:17:10;9.51;99.99
69823;SHT31;57119;52.516;13.508;2023-10-09T06:19:39;9.38;99.99
69823;SHT31;57119;52.516;13.508;2023-10-09T06:22:10;9.48;99.99
69823;SHT31;57119;52.516;13.508;2023-10-09T06:24:54;9.57;99.99
69823;SHT31;57119;52.516;13.508;2023-10-09T06:27:21;9.65;99.99
69823;SHT31;57119;52.516;13.508;2023-10-09T06:30:09;9.74;99.99
69823;SHT31;57119;52.516;13.508;2023-10-09T06:32:50;9.78;99.99
69823;SHT31;57119;52.516;13.508;2023-10-09T06:35:47;9.75;99.99
69823;SHT31;57119;52.516;13.508;2023-10-09T06:38:19;9.65;99.99
69823;SHT31;57119;52.516;13.508;2023-10-09T06:40:49;9.64;99.99
69823;SHT31;57119;52.516;13.508;2023-10-09T06:43:47;9.88;99.99
69823;SHT31;57119;52.516;13.508;2023-10-09T06:46:18;9.92;99.99
69823;SHT31;57119;52.516;13.508;2023-10-09T06:48:49;9.88;99.99
69823;SHT31;57119;52.516;13.508;2023-10-09T06:51:25;9.98;99.99
69823;SHT31;57119;52.516;13.508;2023-10-09T06:53:54;9.95;99.99
69823;SHT31;57119;52.516;13.508;2023-10-09T06:56:26;9.92;99.99
69823;SHT31;57119;52.516;13.508;2023-10-09T06:59:02;10.08;99.99
69823;SHT31;57119;52.516;13.508;2023-10-09T07:01:50;10.19;99.99
69823;SHT31;57119;52.516;13.508;2023-10-09T07:04:37;10.19;99.99
69823;SHT31;57119;52.516;13.508;2023-10-09T07:07:02;10.26;99.99
69823;SHT31;57119;52.516;13.508;2023-10-09T07:09:35;10.36;99.99
69823;SHT31;57119;52.516;13.508;2023-10-09T07:12:29;10.42;99.99
69823;SHT31;57119;52.516;13.508;2023-10-09T07:15:01;10.49;99.99
69823;SHT31;57119;52.516;13.508;2023-10-09T07:17:38;10.57;99.99
69823;SHT31;57119;52.516;13.508;2023-10-09T07:20:04;10.78;99.99
69823;SHT31;57119;52.516;13.508;2023-10-09T07:22:39;10.50;99.99
69823;SHT31;57119;52.516;13.508;2023-10-09T07:25:05;10.70;99.99
69823;SHT31;57119;52.516;13.508;2023-10-09T07:27:41;10.92;99.99
69823;SHT31;57119;52.516;13.508;2023-10-09T07:30:11;10.43;99.99
69823;SHT31;57119;52.516;13.508;2023-10-09T07:33:08;10.43;99.99
69823;SHT31;57119;52.516;13.508;2023-10-09T07:35:46;10.64;99.99
69823;SHT31;57119;52.516;13.508;2023-10-09T07:40:40;10.95;99.99
69823;SHT31;57119;52.516;13.508;2023-10-09T07:43:41;11.15;99.99
69823;SHT31;57119;52.516;13.508;2023-10-09T07:46:18;11.14;99.99
69823;SHT31;57119;52.516;13.508;2023-10-09T07:49:04;11.07;99.99
69823;SHT31;57119;52.516;13.508;2023-10-09T07:51:39;10.88;99.99
69823;SHT31;57119;52.516;13.508;2023-10-09T07:54:08;10.92;99.99
69823;SHT31;57119;52.516;13.508;2023-10-09T07:56:38;10.98;99.99
69823;SHT31;57119;52.516;13.508;2023-10-09T07:59:09;10.65;99.99
69823;SHT31;57119;52.516;13.508;2023-10-09T08:01:40;10.92;99.99
69823;SHT31;57119;52.516;13.508;2023-10-09T08:04:17;10.92;99.99
69823;SHT31;57119;52.516;13.508;2023-10-09T08:06:45;11.12;99.99
69823;SHT31;57119;52.516;13.508;2023-10-09T08:09:12;10.98;99.99
69823;SHT31;57119;52.516;13.508;2023-10-09T08:11:39;11.05;99.99
69823;SHT31;57119;52.516;13.508;2023-10-09T08:14:14;11.04;99.99
69823;SHT31;57119;52.516;13.508;2023-10-09T08:16:58;11.23;99.99
69823;SHT31;57119;52.516;13.508;2023-10-09T08:19:50;11.28;99.99
69823;SHT31;57119;52.516;13.508;2023-10-09T08:22:29;11.38;99.99
69823;SHT31;57119;52.516;13.508;2023-10-09T08:24:55;11.42;99.99
69823;SHT31;57119;52.516;13.508;2023-10-09T08:27:28;11.52;99.99
69823;SHT31;57119;52.516;13.508;2023-10-09T08:32:41;11.49;99.99
69823;SHT31;57119;52.516;13.508;2023-10-09T08:35:09;11.32;99.99
69823;SHT31;57119;52.516;13.508;2023-10-09T08:37:52;11.47;99.99
69823;SHT31;57119;52.516;13.508;2023-10-09T08:40:21;11.56;99.99
69823;SHT31;57119;52.516;13.508;2023-10-09T08:42:53;11.46;99.99
69823;SHT31;57119;52.516;13.508;2023-10-09T08:45:22;11.11;99.99
69823;SHT31;57119;52.516;13.508;2023-10-09T08:47:56;11.16;99.99
69823;SHT31;57119;52.516;13.508;2023-10-09T08:50:22;11.05;99.99
69823;SHT31;57119;52.516;13.508;2023-10-09T08:52:54;10.94;99.99
69823;SHT31;57119;52.516;13.508;2023-10-09T08:55:20;10.88;99.99
69823;SHT31;57119;52.516;13.508;2023-10-09T08:57:46;11.02;99.99
69823;SHT31;57119;52.516;13.508;2023-10-09T09:00:18;11.22;99.99
69823;SHT31;57119;52.516;13.508;2023-10-09T09:02:58;11.21;99.99
69823;SHT31;57119;52.516;13.508;2023-10-09T09:05:25;11.25;99.99
69823;SHT31;57119;52.516;13.508;2023-10-09T09:07:54;11.38;99.99
69823;SHT31;57119;52.516;13.508;2023-10-09T09:10:28;11.60;99.99
69823;SHT31;57119;52.516;13.508;2023-10-09T09:13:03;11.36;99.99
69823;SHT31;57119;52.516;13.508;2023-10-09T09:15:29;11.33;99.99
69823;SHT31;57119;52.516;13.508;2023-10-09T09:18:06;11.49;99.99
69823;SHT31;57119;52.516;13.508;2023-10-09T09:20:32;11.73;99.99
69823;SHT31;57119;52.516;13.508;2023-10-09T09:23:02;11.69;99.99
69823;SHT31;57119;52.516;13.508;2023-10-09T09:25:45;11.86;99.99
69823;SHT31;57119;52.516;13.508;2023-10-09T09:28:16;11.77;99.99
69823;SHT31;57119;52.516;13.508;2023-10-09T09:30:47;11.66;99.99
69823;SHT31;57119;52.516;13.508;2023-10-09T09:33:17;12.08;99.99
69823;SHT31;57119;52.516;13.508;2023-10-09T09:35:58;11.80;99.99
69823;SHT31;57119;52.516;13.508;2023-10-09T09:38:28;11.69;99.99
69823;SHT31;57119;52.516;13.508;2023-10-09T09:40:56;11.66;99.99
69823;SHT31;57119;52.516;13.508;2023-10-09T09:43:22;11.97;99.99
69823;SHT31;57119;52.516;13.508;2023-10-09T09:45:48;12.00;99.99
69823;SHT31;57119;52.516;13.508;2023-10-09T09:48:16;12.21;99.99
69823;SHT31;57119;52.516;13.508;2023-10-09T09:50:45;12.39;99.99
69823;SHT31;57119;52.516;13.508;2023-10-09T09:53:12;12.07;99.99
69823;SHT31;57119;52.516;13.508;2023-10-09T09:55:54;12.25;99.97
69823;SHT31;57119;52.516;13.508;2023-10-09T09:58:23;12.50;99.94
69823;SHT31;57119;52.516;13.508;2023-10-09T10:00:53;12.42;99.48
69823;SHT31;57119;52.516;13.508;2023-10-09T10:05:51;12.02;99.22
69823;SHT31;57119;52.516;13.508;2023-10-09T10:08:20;12.01;98.96
69823;SHT31;57119;52.516;13.508;2023-10-09T10:10:46;11.95;99.16
69823;SHT31;57119;52.516;13.508;2023-10-09T10:16:10;11.87;99.99
69823;SHT31;57119;52.516;13.508;2023-10-09T10:19:04;11.91;99.99
69823;SHT31;57119;52.516;13.508;2023-10-09T10:21:46;11.73;99.99
69823;SHT31;57119;52.516;13.508;2023-10-09T10:27:17;11.63;99.99
69823;SHT31;57119;52.516;13.508;2023-10-09T10:35:17;11.80;99.52
69823;SHT31;57119;52.516;13.508;2023-10-09T10:37:46;11.93;99.92
69823;SHT31;57119;52.516;13.508;2023-10-09T10:40:26;12.28;98.62
69823;SHT31;57119;52.516;13.508;2023-10-09T10:43:18;12.39;98.42
69823;SHT31;57119;52.516;13.508;2023-10-09T10:46:07;12.42;98.89
69823;SHT31;57119;52.516;13.508;2023-10-09T10:49:02;12.46;98.60
69823;SHT31;57119;52.516;13.508;2023-10-09T10:51:40;12.52;98.05
69823;SHT31;57119;52.516;13.508;2023-10-09T10:54:07;12.18;98.89
69823;SHT31;57119;52.516;13.508;2023-10-09T10:56:51;12.90;98.27
69823;SHT31;57119;52.516;13.508;2023-10-09T10:59:20;12.89;96.68
69823;SHT31;57119;52.516;13.508;2023-10-09T11:01:49;13.08;97.14
69823;SHT31;57119;52.516;13.508;2023-10-09T11:04:26;12.56;97.40
69823;SHT31;57119;52.516;13.508;2023-10-09T11:06:59;12.29;97.87
69823;SHT31;57119;52.516;13.508;2023-10-09T11:09:46;12.49;96.65
69823;SHT31;57119;52.516;13.508;2023-10-09T11:12:45;12.60;97.90
69823;SHT31;57119;52.516;13.508;2023-10-09T11:15:34;12.76;97.84
69823;SHT31;57119;52.516;13.508;2023-10-09T11:18:10;12.11;98.41
69823;SHT31;57119;52.516;13.508;2023-10-09T11:20:45;12.34;98.41
69823;SHT31;57119;52.516;13.508;2023-10-09T11:23:42;12.70;97.33
69823;SHT31;57119;52.516;13.508;2023-10-09T11:26:17;12.70;97.71
69823;SHT31;57119;52.516;13.508;2023-10-09T11:29:12;12.39;98.06
69823;SHT31;57119;52.516;13.508;2023-10-09T11:32:20;12.29;97.42
69823;SHT31;57119;52.516;13.508;2023-10-09T11:34:49;12.35;98.24
69823;SHT31;57119;52.516;13.508;2023-10-09T11:37:22;12.49;99.35
69823;SHT31;57119;52.516;13.508;2023-10-09T11:39:54;12.49;99.40
69823;SHT31;57119;52.516;13.508;2023-10-09T11:42:21;12.13;98.81
69823;SHT31;57119;52.516;13.508;2023-10-09T11:45:07;12.42;99.36
69823;SHT31;57119;52.516;13.508;2023-10-09T11:47:54;12.53;98.27
69823;SHT31;57119;52.516;13.508;2023-10-09T11:50:44;12.38;98.18
69823;SHT31;57119;52.516;13.508;2023-10-09T11:53:20;12.77;97.46
69823;SHT31;57119;52.516;13.508;2023-10-09T11:55:51;13.02;96.18
69823;SHT31;57119;52.516;13.508;2023-10-09T11:58:20;13.10;96.28
69823;SHT31;57119;52.516;13.508;2023-10-09T12:00:56;13.38;96.33
69823;SHT31;57119;52.516;13.508;2023-10-09T12:03:28;13.45;96.49
69823;SHT31;57119;52.516;13.508;2023-10-09T12:05:59;13.37;97.64
69823;SHT31;57119;52.516;13.508;2023-10-09T12:08:29;13.48;96.67
69823;SHT31;57119;52.516;13.508;2023-10-09T12:10:55;12.92;97.96
69823;SHT31;57119;52.516;13.508;2023-10-09T12:13:22;13.95;92.88
69823;SHT31;57119;52.516;13.508;2023-10-09T12:15:51;14.13;93.39
69823;SHT31;57119;52.516;13.508;2023-10-09T12:18:21;13.76;94.70
69823;SHT31;57119;52.516;13.508;2023-10-09T12:20:47;13.57;95.23
69823;SHT31;57119;52.516;13.508;2023-10-09T12:23:28;13.31;95.83
69823;SHT31;57119;52.516;13.508;2023-10-09T12:25:53;13.11;95.80
69823;SHT31;57119;52.516;13.508;2023-10-09T12:28:22;13.62;95.16
69823;SHT31;57119;52.516;13.508;2023-10-09T12:30:48;13.82;94.67
69823;SHT31;57119;52.516;13.508;2023-10-09T12:33:18;13.27;94.42
69823;SHT31;57119;52.516;13.508;2023-10-09T12:35:44;13.42;94.89
69823;SHT31;57119;52.516;13.508;2023-10-09T12:38:13;13.42;93.99
69823;SHT31;57119;52.516;13.508;2023-10-09T12:40:43;13.38;96.02
69823;SHT31;57119;52.516;13.508;2023-10-09T12:43:17;13.21;96.31
69823;SHT31;57119;52.516;13.508;2023-10-09T12:45:44;12.76;96.74
69823;SHT31;57119;52.516;13.508;2023-10-09T12:48:10;12.66;98.76
69823;SHT31;57119;52.516;13.508;2023-10-09T12:50:36;12.56;98.85
69823;SHT31;57119;52.516;13.508;2023-10-09T12:53:07;12.08;99.31
69823;SHT31;57119;52.516;13.508;2023-10-09T12:55:36;12.18;99.99
69823;SHT31;57119;52.516;13.508;2023-10-09T12:58:05;12.31;99.25
69823;SHT31;57119;52.516;13.508;2023-10-09T13:00:36;12.18;99.38
69823;SHT31;57119;52.516;13.508;2023-10-09T13:03:15;12.07;99.27
69823;SHT31;57119;52.516;13.508;2023-10-09T13:05:47;11.98;99.49
69823;SHT31;57119;52.516;13.508;2023-10-09T13:08:28;12.17;99.17
69823;SHT31;57119;52.516;13.508;2023-10-09T13:11:02;12.17;98.87
69823;SHT31;57119;52.516;13.508;2023-10-09T13:13:30;12.29;98.21
69823;SHT31;57119;52.516;13.508;2023-10-09T13:16:15;11.91;99.11
69823;SHT31;57119;52.516;13.508;2023-10-09T13:18:57;12.02;99.99
69823;SHT31;57119;52.516;13.508;2023-10-09T13:21:28;12.08;99.65
69823;SHT31;57119;52.516;13.508;2023-10-09T13:24:00;12.04;99.43
69823;SHT31;57119;52.516;13.508;2023-10-09T13:26:29;12.18;99.58
69823;SHT31;57119;52.516;13.508;2023-10-09T13:29:00;12.28;99.69
69823;SHT31;57119;52.516;13.508;2023-10-09T13:31:26;12.35;99.39
69823;SHT31;57119;52.516;13.508;2023-10-09T13:33:56;12.35;99.85
69823;SHT31;57119;52.516;13.508;2023-10-09T13:36:22;12.34;99.99
69823;SHT31;57119;52.516;13.508;2023-10-09T13:41:23;12.08;99.99
69823;SHT31;57119;52.516;13.508;2023-10-09T13:43:53;11.97;99.99
69823;SHT31;57119;52.516;13.508;2023-10-09T13:46:19;12.08;99.99
69823;SHT31;57119;52.516;13.508;2023-10-09T13:48:45;12.01;99.99
69823;SHT31;57119;52.516;13.508;2023-10-09T13:51:11;12.16;99.78
69823;SHT31;57119;52.516;13.508;2023-10-09T13:53:42;11.97;99.92
69823;SHT31;57119;52.516;13.508;2023-10-09T13:56:16;11.84;99.99
69823;SHT31;57119;52.516;13.508;2023-10-09T13:58:49;11.70;99.99
69823;SHT31;57119;52.516;13.508;2023-10-09T14:01:20;11.65;99.99
69823;SHT31;57119;52.516;13.508;2023-10-09T14:03:59;11.63;99.99
69823;SHT31;57119;52.516;13.508;2023-10-09T14:06:26;11.73;99.99
69823;SHT31;57119;52.516;13.508;2023-10-09T14:09:04;11.69;99.99
69823;SHT31;57119;52.516;13.508;2023-10-09T14:11:33;11.52;99.99
69823;SHT31;57119;52.516;13.508;2023-10-09T14:14:03;11.66;99.99
69823;SHT31;57119;52.516;13.508;2023-10-09T14:16:29;11.84;99.99
69823;SHT31;57119;52.516;13.508;2023-10-09T14:18:55;11.87;99.99
69823;SHT31;57119;52.516;13.508;2023-10-09T14:21:32;11.76;99.99
69823;SHT31;57119;52.516;13.508;2023-10-09T14:24:03;11.95;99.99
69823;SHT31;57119;52.516;13.508;2023-10-09T14:26:29;11.93;99.99
69823;SHT31;57119;52.516;13.508;2023-10-09T14:28:56;11.62;99.99
69823;SHT31;57119;52.516;13.508;2023-10-09T14:31:25;11.81;99.99
69823;SHT31;57119;52.516;13.508;2023-10-09T14:33:57;11.69;99.99
69823;SHT31;57119;52.516;13.508;2023-10-09T14:36:23;11.98;99.99
69823;SHT31;57119;52.516;13.508;2023-10-09T14:38:50;11.80;99.99
69823;SHT31;57119;52.516;13.508;2023-10-09T14:41:20;11.80;99.99
69823;SHT31;57119;52.516;13.508;2023-10-09T14:43:48;11.76;99.99
69823;SHT31;57119;52.516;13.508;2023-10-09T14:46:14;11.59;99.99
69823;SHT31;57119;52.516;13.508;2023-10-09T14:48:39;11.87;99.99
69823;SHT31;57119;52.516;13.508;2023-10-09T14:51:06;11.90;99.99
69823;SHT31;57119;52.516;13.508;2023-10-09T14:53:35;11.69;99.99
69823;SHT31;57119;52.516;13.508;2023-10-09T14:56:00;11.79;99.99
69823;SHT31;57119;52.516;13.508;2023-10-09T14:58:27;11.90;99.99
69823;SHT31;57119;52.516;13.508;2023-10-09T15:00:54;11.84;99.99
69823;SHT31;57119;52.516;13.508;2023-10-09T15:03:20;11.84;99.99
69823;SHT31;57119;52.516;13.508;2023-10-09T15:05:48;11.73;99.99
69823;SHT31;57119;52.516;13.508;2023-10-09T15:08:13;11.59;99.99
69823;SHT31;57119;52.516;13.508;2023-10-09T15:10:50;11.55;99.99
69823;SHT31;57119;52.516;13.508;2023-10-09T15:13:17;11.55;99.99
69823;SHT31;57119;52.516;13.508;2023-10-09T15:15:44;11.71;99.99
69823;SHT31;57119;52.516;13.508;2023-10-09T15:18:10;11.79;99.99
69823;SHT31;57119;52.516;13.508;2023-10-09T15:20:39;11.66;99.99
69823;SHT31;57119;52.516;13.508;2023-10-09T15:23:06;11.77;99.99
69823;SHT31;57119;52.516;13.508;2023-10-09T15:25:32;11.53;99.99
69823;SHT31;57119;52.516;13.508;2023-10-09T15:28:03;11.43;99.99
69823;SHT31;57119;52.516;13.508;2023-10-09T15:30:29;11.65;99.99
69823;SHT31;57119;52.516;13.508;2023-10-09T15:32:57;11.60;99.99
69823;SHT31;57119;52.516;13.508;2023-10-09T15:35:22;11.60;99.99
69823;SHT31;57119;52.516;13.508;2023-10-09T15:37:48;11.59;99.99
69823;SHT31;57119;52.516;13.508;2023-10-09T15:40:18;11.43;99.99
69823;SHT31;57119;52.516;13.508;2023-10-09T15:42:44;11.33;99.99
69823;SHT31;57119;52.516;13.508;2023-10-09T15:45:18;11.33;99.99
69823;SHT31;57119;52.516;13.508;2023-10-09T15:47:49;11.47;99.99
69823;SHT31;57119;52.516;13.508;2023-10-09T15:50:16;11.38;99.99
69823;SHT31;57119;52.516;13.508;2023-10-09T15:52:42;11.38;99.99
69823;SHT31;57119;52.516;13.508;2023-10-09T15:55:07;11.31;99.99
69823;SHT31;57119;52.516;13.508;2023-10-09T15:57:40;11.39;99.99
69823;SHT31;57119;52.516;13.508;2023-10-09T16:00:07;11.40;99.99
69823;SHT31;57119;52.516;13.508;2023-10-09T16:02:48;11.39;99.99
69823;SHT31;57119;52.516;13.508;2023-10-09T16:05:14;11.22;99.99
69823;SHT31;57119;52.516;13.508;2023-10-09T16:07:42;11.31;99.99
69823;SHT31;57119;52.516;13.508;2023-10-09T16:10:09;11.29;99.99
69823;SHT31;57119;52.516;13.508;2023-10-09T16:12:37;11.22;99.99
69823;SHT31;57119;52.516;13.508;2023-10-09T16:15:03;11.21;99.99
69823;SHT31;57119;52.516;13.508;2023-10-09T16:17:35;11.19;99.99
69823;SHT31;57119;52.516;13.508;2023-10-09T16:20:03;11.22;99.99
69823;SHT31;57119;52.516;13.508;2023-10-09T16:22:30;11.21;99.99
69823;SHT31;57119;52.516;13.508;2023-10-09T16:25:00;11.29;99.99
69823;SHT31;57119;52.516;13.508;2023-10-09T16:27:27;11.36;99.99
69823;SHT31;57119;52.516;13.508;2023-10-09T16:29:53;11.31;99.99
69823;SHT31;57119;52.516;13.508;2023-10-09T16:32:18;11.39;99.99